Hermon, Maine
Current Conditions -  °F | °C
As of 11:53 AM on Friday 28 Nov 2014 (Local Time) from KBGR Reporting Station
Broken Clouds Broken Clouds  
Wind Chill: 15°   Ceiling: 20000
Heat Index: 24°   Visibility: 10mi
Dew Point: 13°   Wind: 8mph
Humidity: 62%   Direction: 330°NNW
Pressure: 30.02"   Gusts: NA
Location:  44.8521°N, 68.8311°W
Report Text: KBGR 281653Z 33007KT 10SM FEW070 SCT100 BKN200 M04/M11 A3002 RMK AO2 SLP169 T10441106
Loading
Personal Weather Stations






























Interactive Weather Map New forecast layout! Learn more

10-Day Weather Forecast

Advertisements
Track Severe Weather on mobile